Time;durP1;ratioP1;P1;durP2;ratioP2;P2;SDS_P1;SDS_P2;PMS_P1;PMS_P2;Temp;Humidity;BMP_temperature;BMP_pressure;BME280_temperature;BME280_humidity;BME280_pressure;Samples;Min_cycle;Max_cycle;Signal;HPM_P1;HPM_P2
2021/04/19 00:01:29;;;;;;;36.90;29.20;;;9.50;94.70;;;;;;5032152;28;20060;-59
2021/04/19 00:03:54;;;;;;;38.75;30.58;;;9.50;94.70;;;;;;5030762;28;20512;-58
2021/04/19 00:06:21;;;;;;;37.75;29.73;;;9.40;95.00;;;;;;5031824;28;20055;-57
2021/04/19 00:08:46;;;;;;;38.20;29.95;;;9.40;94.80;;;;;;5031454;28;20026;-57
2021/04/19 00:11:12;;;;;;;37.08;29.75;;;9.50;94.80;;;;;;5032461;28;20516;-55
2021/04/19 00:13:38;;;;;;;34.28;28.42;;;9.50;94.80;;;;;;5031561;28;20036;-57
2021/04/19 00:16:04;;;;;;;36.38;29.00;;;9.50;94.80;;;;;;5033492;28;20034;-55
2021/04/19 00:18:30;;;;;;;34.22;29.35;;;9.50;94.70;;;;;;5031117;28;20032;-56
2021/04/19 00:20:55;;;;;;;36.25;31.27;;;9.40;94.90;;;;;;5032154;28;20408;-58
2021/04/19 00:23:21;;;;;;;39.38;28.85;;;9.40;94.80;;;;;;5030329;28;20090;-57
2021/04/19 00:25:46;;;;;;;38.03;29.75;;;9.40;94.80;;;;;;5034694;28;20048;-56
2021/04/19 00:28:12;;;;;;;34.00;28.60;;;9.40;94.80;;;;;;5031266;28;20478;-57
2021/04/19 00:30:38;;;;;;;34.78;28.13;;;9.40;94.80;;;;;;5030177;28;20508;-59
2021/04/19 00:33:04;;;;;;;34.75;28.52;;;9.30;94.90;;;;;;5031359;28;20616;-54
2021/04/19 00:35:29;;;;;;;34.83;28.33;;;9.40;94.70;;;;;;5036595;28;20029;-58
2021/04/19 00:37:55;;;;;;;32.60;28.67;;;9.30;94.90;;;;;;5035308;28;20175;-61
2021/04/19 00:40:20;;;;;;;34.80;27.63;;;9.30;94.90;;;;;;5032920;28;20096;-57
2021/04/19 00:42:49;;;;;;;36.50;29.00;;;9.30;94.90;;;;;;5034418;28;20057;-57
2021/04/19 00:45:15;;;;;;;36.40;29.40;;;9.30;94.80;;;;;;5035434;28;20068;-57
2021/04/19 00:47:45;;;;;;;34.42;28.25;;;9.20;95.00;;;;;;5035091;28;20087;-58
2021/04/19 00:50:13;;;;;;;35.58;28.50;;;9.30;95.00;;;;;;5034357;28;20040;-59
2021/04/19 00:52:38;;;;;;;36.00;30.30;;;9.30;95.00;;;;;;5033450;28;20072;-58
2021/04/19 00:55:10;;;;;;;35.45;29.63;;;9.40;94.80;;;;;;5035513;28;20075;-59
2021/04/19 00:57:36;;;;;;;39.72;30.20;;;9.30;94.80;;;;;;5034556;28;20052;-55
2021/04/19 01:00:10;;;;;;;38.17;30.45;;;9.30;95.10;;;;;;5035540;28;20413;-59
2021/04/19 01:02:36;;;;;;;38.03;29.15;;;9.20;94.90;;;;;;5034549;28;20393;-56
2021/04/19 01:05:03;;;;;;;39.67;30.90;;;9.20;95.10;;;;;;5033819;28;20037;-56
2021/04/19 01:07:29;;;;;;;40.25;29.92;;;9.10;95.20;;;;;;5019527;28;20033;-54
2021/04/19 01:09:54;;;;;;;41.97;32.22;;;9.10;95.10;;;;;;5014518;28;20033;-59
2021/04/19 01:12:20;;;;;;;40.17;32.92;;;9.10;95.20;;;;;;5033349;28;20144;-57
2021/04/19 01:14:46;;;;;;;43.00;31.95;;;9.10;95.20;;;;;;5033886;28;20033;-56
2021/04/19 01:17:11;;;;;;;41.47;31.83;;;9.00;95.20;;;;;;5035204;28;20094;-57
2021/04/19 01:19:37;;;;;;;42.25;33.80;;;9.00;95.30;;;;;;5033176;28;20392;-59
2021/04/19 01:22:02;;;;;;;40.13;31.17;;;9.10;95.40;;;;;;5035606;28;20432;-54
2021/04/19 01:24:28;;;;;;;40.67;30.35;;;9.00;95.30;;;;;;5033384;28;20108;-59
2021/04/19 01:26:54;;;;;;;43.63;32.47;;;9.00;95.20;;;;;;5035200;28;20045;-57
2021/04/19 01:29:19;;;;;;;40.60;31.70;;;9.10;95.30;;;;;;5031386;28;20030;-56
2021/04/19 01:31:45;;;;;;;40.35;31.95;;;9.10;95.20;;;;;;5034256;28;20037;-54
2021/04/19 01:34:10;;;;;;;40.17;31.40;;;9.10;95.00;;;;;;5029744;28;20048;-56
2021/04/19 01:36:36;;;;;;;43.22;33.30;;;9.00;95.00;;;;;;5030797;28;20034;-55
2021/04/19 01:39:02;;;;;;;41.28;31.58;;;9.00;95.20;;;;;;5014011;28;20038;-59
2021/04/19 01:41:29;;;;;;;42.20;32.38;;;9.00;95.20;;;;;;5021561;28;20037;-55
2021/04/19 01:43:55;;;;;;;40.20;31.52;;;9.00;95.20;;;;;;5014069;28;20034;-57
2021/04/19 01:46:21;;;;;;;40.20;31.88;;;9.00;95.10;;;;;;5027659;28;20519;-55
2021/04/19 01:48:47;;;;;;;43.00;32.08;;;9.10;95.20;;;;;;5028580;28;20103;-57
2021/04/19 01:51:13;;;;;;;43.00;32.03;;;9.00;95.10;;;;;;5024541;28;20099;-55
2021/04/19 01:53:39;;;;;;;45.55;33.33;;;9.10;95.20;;;;;;5018391;28;20049;-58
2021/04/19 01:56:05;;;;;;;47.97;33.25;;;9.10;95.10;;;;;;5021120;28;20033;-54
2021/04/19 01:58:31;;;;;;;43.50;33.70;;;9.20;94.90;;;;;;5020255;28;20073;-56
2021/04/19 02:00:58;;;;;;;39.60;31.27;;;9.20;94.90;;;;;;5016734;28;20033;-56
2021/04/19 02:03:42;;;;;;;42.40;32.58;;;9.20;94.90;;;;;;5026279;28;20054;-59
2021/04/19 02:06:52;;;;;;;38.83;31.85;;;9.20;94.90;;;;;;5017984;28;20021;-60
2021/04/19 02:09:20;;;;;;;44.67;33.38;;;9.20;94.80;;;;;;4977816;28;20565;-58
2021/04/19 02:12:00;;;;;;;43.55;33.30;;;9.20;94.80;;;;;;5030766;28;20041;-58
2021/04/19 02:14:35;;;;;;;44.10;32.40;;;9.20;94.70;;;;;;5013146;28;20022;-58
2021/04/19 02:17:39;;;;;;;41.35;32.47;;;9.20;94.80;;;;;;5031447;28;20063;-57
2021/04/19 02:20:23;;;;;;;43.47;32.22;;;9.20;94.70;;;;;;5027319;28;20041;-57
2021/04/19 02:22:53;;;;;;;58.23;32.17;;;9.20;94.70;;;;;;5034484;28;20026;-55
2021/04/19 02:25:53;;;;;;;42.13;31.67;;;9.10;94.60;;;;;;5032684;28;20393;-55
2021/04/19 02:28:30;;;;;;;43.45;31.20;;;9.10;94.70;;;;;;5001127;28;20053;-58
2021/04/19 02:31:00;;;;;;;57.55;34.03;;;9.00;94.60;;;;;;5031834;28;20025;-52
2021/04/19 02:33:30;;;;;;;48.70;34.45;;;8.90;94.70;;;;;;5032455;28;20033;-57
2021/04/19 02:35:56;;;;;;;48.05;34.38;;;8.70;95.00;;;;;;5031933;28;20018;-59
2021/04/19 02:38:25;;;;;;;51.13;34.35;;;8.80;95.10;;;;;;5031385;28;20040;-58
2021/04/19 02:40:53;;;;;;;44.35;32.88;;;8.80;95.00;;;;;;5031724;28;20051;-56
2021/04/19 02:43:21;;;;;;;45.08;33.13;;;8.80;95.00;;;;;;5030956;28;20040;-57
2021/04/19 02:45:48;;;;;;;43.85;33.05;;;8.80;94.90;;;;;;5031840;28;20493;-59
2021/04/19 02:48:15;;;;;;;46.95;34.17;;;8.90;94.90;;;;;;5032933;28;20520;-58
2021/04/19 02:50:42;;;;;;;49.55;33.90;;;8.90;94.90;;;;;;5018328;28;20026;-57
2021/04/19 02:53:08;;;;;;;43.75;32.30;;;8.90;94.70;;;;;;5035964;28;20034;-59
2021/04/19 02:55:35;;;;;;;51.80;31.90;;;8.80;94.80;;;;;;5020319;28;20397;-56
2021/04/19 02:58:06;;;;;;;46.35;33.53;;;8.70;94.80;;;;;;5022348;28;20037;-59
2021/04/19 03:00:36;;;;;;;45.97;32.58;;;8.70;95.10;;;;;;5011234;28;20896;-58
2021/04/19 03:03:11;;;;;;;43.80;32.40;;;8.70;95.00;;;;;;5030586;28;20037;-58
2021/04/19 03:05:39;;;;;;;42.03;31.67;;;8.80;95.00;;;;;;5011524;28;20637;-55
2021/04/19 03:08:10;;;;;;;41.78;31.27;;;8.90;94.90;;;;;;5031137;28;20034;-56
2021/04/19 03:10:38;;;;;;;46.60;32.05;;;8.90;94.80;;;;;;5011920;28;20060;-59
2021/04/19 03:13:07;;;;;;;57.78;33.75;;;9.00;94.70;;;;;;5022927;28;20052;-58
2021/04/19 03:15:36;;;;;;;126.45;38.08;;;9.00;94.30;;;;;;5011518;28;20030;-56
2021/04/19 03:18:05;;;;;;;51.92;35.25;;;8.80;94.30;;;;;;5027631;28;20029;-58
2021/04/19 03:21:03;;;;;;;51.22;32.58;;;8.80;94.80;;;;;;5018395;28;20095;-56
2021/04/19 03:23:30;;;;;;;54.35;33.67;;;8.80;94.80;;;;;;5026119;28;20037;-57
2021/04/19 03:25:58;;;;;;;55.80;33.55;;;8.70;95.00;;;;;;5026718;28;20519;-59
2021/04/19 03:28:25;;;;;;;67.90;34.38;;;8.50;95.10;;;;;;5022790;28;20046;-54
2021/04/19 03:30:51;;;;;;;60.78;34.53;;;8.30;95.50;;;;;;5012732;28;20501;-58
2021/04/19 03:33:19;;;;;;;78.55;34.13;;;8.20;95.80;;;;;;5023675;28;20057;-57
2021/04/19 03:35:46;;;;;;;51.95;34.15;;;8.10;95.80;;;;;;5024699;28;20060;-57
2021/04/19 03:38:18;;;;;;;54.80;32.78;;;8.00;96.10;;;;;;5025724;28;20030;-57
2021/04/19 03:40:45;;;;;;;63.15;31.65;;;8.00;96.30;;;;;;5012638;28;20030;-57
2021/04/19 03:43:13;;;;;;;59.95;31.50;;;8.00;95.90;;;;;;5024426;28;20095;-56
2021/04/19 03:45:40;;;;;;;43.75;28.55;;;8.00;95.80;;;;;;5013086;28;20034;-55
2021/04/19 03:48:10;;;;;;;42.22;30.63;;;8.10;95.90;;;;;;5018405;28;20072;-59
2021/04/19 03:50:41;;;;;;;47.08;27.67;;;8.10;95.80;;;;;;5012507;28;20393;-52
2021/04/19 03:53:07;;;;;;;47.70;29.33;;;8.10;95.70;;;;;;5025919;28;20044;-57
2021/04/19 03:55:34;;;;;;;39.70;28.77;;;8.10;95.60;;;;;;5012381;28;20481;-55
2021/04/19 03:58:00;;;;;;;40.70;30.13;;;8.10;95.80;;;;;;5025162;28;20039;-54
2021/04/19 04:00:27;;;;;;;38.00;29.67;;;8.10;95.90;;;;;;5011985;28;20029;-52
2021/04/19 04:02:54;;;;;;;45.85;30.58;;;8.20;95.90;;;;;;5023524;28;20033;-59
2021/04/19 04:05:20;;;;;;;52.15;33.25;;;8.10;95.70;;;;;;5018734;28;20037;-59
2021/04/19 04:07:48;;;;;;;53.50;34.35;;;8.20;95.70;;;;;;5018607;28;20029;-55
2021/04/19 04:10:15;;;;;;;41.83;30.40;;;8.20;95.80;;;;;;5018752;28;20086;-58
2021/04/19 04:12:41;;;;;;;42.72;30.65;;;8.20;95.70;;;;;;5014900;28;20026;-56
2021/04/19 04:15:07;;;;;;;39.45;27.77;;;8.10;95.80;;;;;;5016765;28;20106;-56
2021/04/19 04:17:32;;;;;;;50.05;31.80;;;8.10;95.90;;;;;;5012244;28;20034;-54
2021/04/19 04:19:58;;;;;;;41.60;30.38;;;8.10;95.80;;;;;;5035074;28;20057;-59
2021/04/19 04:22:24;;;;;;;45.17;30.23;;;8.20;95.70;;;;;;5030089;28;20390;-57
2021/04/19 04:24:51;;;;;;;40.65;29.02;;;8.20;95.80;;;;;;5038660;28;20040;-56
2021/04/19 04:27:16;;;;;;;43.95;29.65;;;8.20;95.60;;;;;;5019942;28;20042;-59
2021/04/19 04:29:42;;;;;;;46.20;30.00;;;8.20;95.60;;;;;;5025998;28;20504;-58
2021/04/19 04:32:08;;;;;;;51.90;28.58;;;8.20;95.60;;;;;;5011926;28;20021;-59
2021/04/19 04:34:34;;;;;;;38.67;28.00;;;8.20;95.60;;;;;;5037765;28;20171;-58
2021/04/19 04:37:00;;;;;;;40.85;27.95;;;8.20;95.70;;;;;;5011383;28;20507;-60
2021/04/19 04:39:26;;;;;;;36.85;26.63;;;8.30;95.60;;;;;;5036923;28;20052;-56
2021/04/19 04:41:52;;;;;;;37.33;27.30;;;8.30;95.60;;;;;;5011172;28;20405;-55
2021/04/19 04:44:30;;;;;;;35.03;26.70;;;8.40;95.40;;;;;;5027313;28;20071;-56
2021/04/19 04:47:14;;;;;;;31.90;23.65;;;8.50;95.20;;;;;;5011183;28;20033;-57
2021/04/19 04:49:54;;;;;;;37.67;27.77;;;8.60;95.10;;;;;;5025222;28;20468;-57
2021/04/19 04:52:21;;;;;;;40.05;27.27;;;8.60;94.90;;;;;;5011963;28;20117;-60
2021/04/19 04:54:49;;;;;;;38.47;26.80;;;8.60;94.80;;;;;;5038853;28;20029;-60
2021/04/19 04:57:20;;;;;;;35.50;27.50;;;8.50;94.60;;;;;;5018255;28;20026;-57
2021/04/19 04:59:48;;;;;;;37.13;26.85;;;8.60;94.90;;;;;;5016605;28;20728;-57
2021/04/19 05:02:18;;;;;;;43.10;27.92;;;8.60;94.90;;;;;;5011828;28;20042;-60
2021/04/19 05:04:44;;;;;;;39.35;29.98;;;8.70;94.80;;;;;;5034863;28;20420;-58
2021/04/19 05:07:10;;;;;;;39.15;28.30;;;8.70;94.40;;;;;;5009892;28;20038;-58
2021/04/19 05:09:36;;;;;;;39.83;27.23;;;8.80;94.30;;;;;;5018412;28;20030;-57
2021/04/19 05:12:04;;;;;;;43.45;28.08;;;8.80;94.10;;;;;;5011058;28;20105;-60
2021/04/19 05:14:30;;;;;;;36.10;27.15;;;8.50;94.30;;;;;;5029372;28;20116;-59
2021/04/19 05:16:55;;;;;;;38.20;27.98;;;8.50;94.40;;;;;;5021663;28;20165;-57
2021/04/19 05:19:21;;;;;;;43.25;27.23;;;8.50;94.50;;;;;;5018542;28;20060;-59
2021/04/19 05:21:46;;;;;;;36.38;26.90;;;8.40;94.70;;;;;;5022165;28;20034;-56
2021/04/19 05:24:12;;;;;;;37.80;27.65;;;8.40;94.70;;;;;;5027682;28;20525;-56
2021/04/19 05:26:37;;;;;;;36.90;26.50;;;8.40;94.80;;;;;;5027422;28;20061;-54
2021/04/19 05:29:03;;;;;;;36.47;25.73;;;8.40;94.90;;;;;;5021683;28;20029;-58
2021/04/19 05:31:29;;;;;;;37.03;25.90;;;8.30;95.00;;;;;;5015063;28;20034;-56
2021/04/19 05:33:55;;;;;;;33.20;25.73;;;8.30;95.00;;;;;;5024805;28;20024;-58
2021/04/19 05:36:24;;;;;;;32.47;24.45;;;8.30;95.10;;;;;;5019334;28;20028;-56
2021/04/19 05:38:52;;;;;;;34.28;26.90;;;8.50;95.10;;;;;;5021764;28;20481;-62
2021/04/19 05:41:18;;;;;;;35.72;25.65;;;8.50;94.80;;;;;;5035899;28;20559;-54
2021/04/19 05:43:45;;;;;;;36.38;26.20;;;8.60;94.80;;;;;;5021442;28;20044;-60
2021/04/19 05:46:14;;;;;;;34.75;26.38;;;8.70;94.40;;;;;;5029881;28;20042;-60
2021/04/19 05:48:41;;;;;;;35.75;25.95;;;8.70;94.40;;;;;;5016527;28;20041;-59
2021/04/19 05:51:21;;;;;;;36.70;26.08;;;8.60;94.80;;;;;;5031380;28;20447;-58
2021/04/19 05:53:50;;;;;;;42.40;27.95;;;8.60;94.80;;;;;;5033859;28;20481;-58
2021/04/19 05:56:37;;;;;;;45.35;27.33;;;8.60;94.70;;;;;;5033421;28;20087;-57
2021/04/19 05:59:08;;;;;;;42.28;27.23;;;8.60;94.60;;;;;;5027720;28;20029;-56
2021/04/19 06:01:39;;;;;;;46.20;27.50;;;8.50;94.80;;;;;;5041604;28;20040;-58
2021/04/19 06:04:12;;;;;;;44.78;27.08;;;8.40;95.00;;;;;;5037056;28;20135;-58
2021/04/19 06:06:59;;;;;;;47.30;28.58;;;8.30;95.00;;;;;;5017696;28;20158;-60
2021/04/19 06:09:33;;;;;;;49.45;28.85;;;8.30;95.10;;;;;;5021859;28;20033;-55
2021/04/19 06:12:06;;;;;;;49.50;30.10;;;8.30;94.90;;;;;;5022929;28;20100;-54
2021/04/19 06:14:35;;;;;;;57.75;30.15;;;8.40;95.10;;;;;;5033658;28;20486;-60
2021/04/19 06:17:03;;;;;;;59.58;32.58;;;8.40;94.90;;;;;;5022573;28;20032;-60
2021/04/19 06:19:30;;;;;;;52.72;30.02;;;8.40;94.90;;;;;;5024474;28;20189;-60
2021/04/19 06:21:56;;;;;;;61.25;31.80;;;8.50;94.80;;;;;;5030576;28;20029;-59
2021/04/19 06:24:21;;;;;;;60.35;31.80;;;8.40;95.00;;;;;;5018411;28;20512;-59
2021/04/19 06:26:47;;;;;;;59.42;31.42;;;8.50;95.10;;;;;;5031835;28;20042;-59
2021/04/19 06:29:14;;;;;;;56.88;31.80;;;8.60;95.10;;;;;;5013675;28;20030;-54
2021/04/19 06:31:47;;;;;;;59.53;32.05;;;8.70;94.80;;;;;;5023734;28;20125;-60
2021/04/19 06:34:15;;;;;;;58.90;30.63;;;8.80;94.50;;;;;;5013344;28;20052;-59
2021/04/19 06:36:43;;;;;;;51.35;29.25;;;8.60;94.60;;;;;;5032205;28;20034;-58
2021/04/19 06:39:11;;;;;;;53.00;31.02;;;8.80;94.60;;;;;;5011905;28;20033;-58
2021/04/19 06:41:37;;;;;;;65.50;37.58;;;8.90;94.50;;;;;;5028959;28;20048;-59
2021/04/19 06:44:03;;;;;;;55.67;32.05;;;8.90;94.60;;;;;;5026645;28;20026;-60
2021/04/19 06:46:34;;;;;;;50.70;31.52;;;8.80;94.50;;;;;;5013701;28;20038;-58
2021/04/19 06:49:00;;;;;;;49.45;30.83;;;8.70;94.50;;;;;;5012881;28;20081;-57
2021/04/19 06:51:26;;;;;;;57.63;34.22;;;8.80;94.60;;;;;;5034026;28;20060;-57
2021/04/19 06:53:55;;;;;;;50.10;31.45;;;8.90;94.30;;;;;;5013923;28;20478;-57
2021/04/19 06:56:35;;;;;;;62.38;37.00;;;8.90;94.20;;;;;;5033452;28;20120;-59
2021/04/19 06:59:01;;;;;;;55.20;34.38;;;8.80;94.20;;;;;;5016198;28;20087;-61
2021/04/19 07:01:29;;;;;;;59.25;35.08;;;8.90;94.20;;;;;;5018623;28;20532;-55
2021/04/19 07:03:59;;;;;;;53.08;34.40;;;8.80;94.40;;;;;;5036611;28;20029;-58
2021/04/19 07:06:27;;;;;;;53.55;35.65;;;8.80;94.30;;;;;;5012780;28;20125;-59
2021/04/19 07:08:58;;;;;;;60.70;38.15;;;8.90;94.30;;;;;;5032416;28;20045;-58
2021/04/19 07:11:25;;;;;;;59.13;37.90;;;9.00;94.20;;;;;;5012330;28;20034;-58
2021/04/19 07:13:52;;;;;;;62.35;38.30;;;8.90;94.40;;;;;;5030540;28;20044;-60
2021/04/19 07:16:18;;;;;;;59.70;36.92;;;8.90;94.20;;;;;;5014670;28;20065;-60
2021/04/19 07:18:44;;;;;;;58.50;36.95;;;9.00;94.20;;;;;;5028548;28;20033;-58
2021/04/19 07:21:11;;;;;;;59.30;39.83;;;9.20;94.10;;;;;;5035299;28;20149;-57
2021/04/19 07:23:37;;;;;;;56.25;36.35;;;9.20;93.90;;;;;;5045906;28;20037;-57
2021/04/19 07:26:06;;;;;;;55.50;36.55;;;9.20;94.20;;;;;;5038758;28;20049;-56
2021/04/19 07:28:37;;;;;;;57.72;37.15;;;9.30;94.10;;;;;;5035954;28;20033;-59
2021/04/19 07:31:09;;;;;;;55.30;36.28;;;9.40;93.90;;;;;;5029062;28;20092;-58
2021/04/19 07:33:35;;;;;;;55.65;36.85;;;9.40;93.90;;;;;;5035334;28;20040;-56
2021/04/19 07:36:28;;;;;;;53.22;36.35;;;9.40;93.80;;;;;;5035025;28;20033;-57
2021/04/19 07:38:56;;;;;;;56.60;37.17;;;9.40;93.90;;;;;;5013860;28;20029;-59
2021/04/19 07:41:42;;;;;;;56.42;37.22;;;9.60;93.40;;;;;;5024051;28;20065;-61
2021/04/19 07:44:08;;;;;;;53.85;36.28;;;9.60;93.50;;;;;;5028607;28;20032;-61
2021/04/19 07:46:33;;;;;;;54.60;38.90;;;9.60;93.10;;;;;;5028290;28;20683;-58
2021/04/19 07:48:59;;;;;;;53.05;37.08;;;9.70;93.00;;;;;;5022527;28;20022;-58
2021/04/19 07:51:33;;;;;;;53.08;36.10;;;9.70;93.10;;;;;;5016678;28;20036;-56
2021/04/19 07:54:11;;;;;;;49.30;34.20;;;9.80;93.10;;;;;;5033130;28;20112;-56
2021/04/19 07:56:41;;;;;;;52.47;35.63;;;9.80;93.20;;;;;;5034576;28;20036;-57
2021/04/19 07:59:22;;;;;;;49.35;35.33;;;9.70;93.10;;;;;;5022665;28;20088;-57
2021/04/19 08:02:00;;;;;;;55.92;38.45;;;9.80;93.20;;;;;;5024413;28;20452;-56
2021/04/19 08:04:26;;;;;;;65.47;40.45;;;9.70;93.30;;;;;;5034004;28;20044;-56
2021/04/19 08:06:52;;;;;;;61.15;41.35;;;9.80;93.10;;;;;;5030864;28;20033;-57
2021/04/19 08:09:22;;;;;;;59.45;40.00;;;9.90;92.90;;;;;;5030778;28;20040;-57
2021/04/19 08:11:50;;;;;;;59.58;41.22;;;10.00;92.70;;;;;;5031113;28;20057;-59
2021/04/19 08:14:16;;;;;;;61.78;43.15;;;10.00;92.90;;;;;;5030511;28;20033;-57
2021/04/19 08:16:41;;;;;;;65.85;43.58;;;10.10;92.70;;;;;;5032768;28;20060;-57
2021/04/19 08:19:07;;;;;;;65.95;45.33;;;10.10;92.50;;;;;;5014264;28;20060;-57
2021/04/19 08:21:34;;;;;;;69.28;46.40;;;10.20;92.50;;;;;;5035027;28;20041;-59
2021/04/19 08:24:16;;;;;;;61.05;41.50;;;10.20;92.40;;;;;;5032935;28;20040;-58
2021/04/19 08:27:00;;;;;;;52.92;39.85;;;10.00;92.80;;;;;;5032482;28;20079;-54
2021/04/19 08:29:45;;;;;;;45.35;31.33;;;10.00;92.70;;;;;;5033673;28;20026;-59
2021/04/19 08:32:13;;;;;;;47.47;34.65;;;10.10;92.50;;;;;;5034989;28;20393;-57
2021/04/19 08:34:40;;;;;;;41.65;31.80;;;10.00;92.50;;;;;;5032917;28;20025;-57
2021/04/19 08:37:08;;;;;;;41.70;31.58;;;10.00;92.60;;;;;;5033407;28;20419;-56
2021/04/19 08:39:34;;;;;;;41.60;30.02;;;10.10;92.60;;;;;;5032189;28;20025;-59
2021/04/19 08:42:01;;;;;;;37.05;27.35;;;10.10;92.40;;;;;;5034013;28;20037;-53
2021/04/19 08:44:31;;;;;;;34.88;26.52;;;10.10;92.40;;;;;;5031721;28;20517;-62
2021/04/19 08:46:58;;;;;;;37.45;27.52;;;10.30;92.30;;;;;;5032388;28;20026;-57
2021/04/19 08:49:24;;;;;;;33.08;24.58;;;10.50;91.90;;;;;;5030202;28;20037;-62
2021/04/19 08:51:50;;;;;;;31.00;22.75;;;10.50;91.70;;;;;;5024864;28;20140;-58
2021/04/19 08:54:16;;;;;;;31.65;24.40;;;10.40;91.80;;;;;;5018601;28;20041;-59
2021/04/19 08:56:42;;;;;;;30.20;23.67;;;10.50;91.60;;;;;;5019056;28;20038;-55
2021/04/19 08:59:08;;;;;;;26.75;21.63;;;10.60;91.60;;;;;;5031668;28;20037;-59
2021/04/19 09:01:34;;;;;;;30.88;23.02;;;10.60;91.70;;;;;;5036481;28;20034;-57
2021/04/19 09:04:07;;;;;;;30.42;23.05;;;10.60;91.40;;;;;;5037838;28;20546;-55
2021/04/19 09:06:50;;;;;;;30.27;24.00;;;10.60;91.60;;;;;;5027284;28;20480;-59
2021/04/19 09:09:37;;;;;;;34.10;24.88;;;10.50;91.70;;;;;;5026061;28;20045;-57
2021/04/19 09:12:09;;;;;;;33.97;24.67;;;10.30;92.10;;;;;;5038459;28;20037;-55
2021/04/19 09:14:36;;;;;;;32.30;25.67;;;10.20;92.30;;;;;;5037565;28;20045;-60
2021/04/19 09:17:02;;;;;;;34.53;25.08;;;10.20;92.40;;;;;;5035835;28;20030;-58
2021/04/19 09:19:30;;;;;;;31.83;23.35;;;10.40;92.30;;;;;;5033058;28;20053;-54
2021/04/19 09:22:10;;;;;;;35.45;25.98;;;10.50;92.10;;;;;;5034824;28;20079;-56
2021/04/19 09:25:05;;;;;;;33.00;24.58;;;10.60;91.90;;;;;;5015874;28;20053;-58
2021/04/19 09:27:45;;;;;;;35.70;25.52;;;10.70;91.90;;;;;;5031148;28;20053;-57
2021/04/19 09:30:32;;;;;;;33.92;24.58;;;10.90;91.70;;;;;;5034421;28;20388;-53
2021/04/19 09:33:04;;;;;;;28.85;22.73;;;10.90;91.30;;;;;;5031406;28;20038;-56
2021/04/19 09:35:39;;;;;;;36.67;26.08;;;11.00;91.00;;;;;;5015149;28;20026;-57
2021/04/19 09:38:08;;;;;;;30.38;22.73;;;11.00;90.80;;;;;;5040997;28;20130;-60
2021/04/19 09:41:18;;;;;;;29.77;22.77;;;11.10;91.00;;;;;;5023341;28;20038;-58
2021/04/19 09:43:46;;;;;;;30.27;23.33;;;11.30;90.50;;;;;;5032712;28;20116;-59
2021/04/19 09:46:19;;;;;;;27.98;22.50;;;11.50;90.20;;;;;;5034719;28;20532;-57
2021/04/19 09:48:44;;;;;;;29.65;23.50;;;11.60;89.00;;;;;;5036933;28;20120;-55
2021/04/19 09:51:16;;;;;;;29.95;23.98;;;11.60;89.20;;;;;;5040707;28;20272;-60
2021/04/19 09:53:53;;;;;;;29.17;24.48;;;11.70;89.20;;;;;;5036769;28;20444;-56
2021/04/19 09:56:27;;;;;;;31.55;24.02;;;11.60;89.40;;;;;;5034031;28;20505;-58
2021/04/19 09:58:53;;;;;;;31.85;23.30;;;11.70;89.50;;;;;;5031005;28;20041;-59
2021/04/19 10:01:23;;;;;;;30.25;24.60;;;11.80;89.00;;;;;;5014649;28;20048;-57
2021/04/19 10:03:53;;;;;;;32.47;24.70;;;11.90;89.20;;;;;;5039684;28;20037;-58
2021/04/19 10:06:36;;;;;;;28.58;24.30;;;11.90;87.70;;;;;;5030840;28;20087;-58
2021/04/19 10:09:03;;;;;;;30.17;24.60;;;12.00;87.80;;;;;;5014316;28;20029;-55
2021/04/19 10:11:33;;;;;;;29.60;24.58;;;12.10;87.60;;;;;;5014274;28;20026;-61
2021/04/19 10:14:07;;;;;;;30.52;26.13;;;12.40;86.40;;;;;;5035059;28;20037;-58
2021/04/19 10:16:49;;;;;;;30.65;25.00;;;12.30;84.30;;;;;;5017150;28;20038;-61
2021/04/19 10:19:26;;;;;;;30.50;25.90;;;12.40;84.60;;;;;;5025216;28;20107;-55
2021/04/19 10:22:04;;;;;;;33.60;26.65;;;12.70;84.00;;;;;;5032344;28;20100;-59
2021/04/19 10:24:31;;;;;;;30.08;25.83;;;12.80;82.90;;;;;;5024949;28;20040;-59
2021/04/19 10:26:57;;;;;;;32.72;27.42;;;12.80;83.20;;;;;;5028111;28;20083;-57
2021/04/19 10:29:26;;;;;;;31.58;26.27;;;12.80;82.10;;;;;;5021618;28;20041;-56
2021/04/19 10:31:55;;;;;;;32.50;27.23;;;12.40;82.40;;;;;;5016035;28;20048;-58
2021/04/19 10:34:27;;;;;;;32.67;28.58;;;12.10;83.70;;;;;;5028089;28;20033;-55
2021/04/19 10:36:58;;;;;;;33.55;28.42;;;12.10;84.60;;;;;;5027683;28;20025;-60
2021/04/19 10:39:27;;;;;;;32.50;28.65;;;12.30;83.40;;;;;;5031318;28;20124;-58
2021/04/19 10:41:58;;;;;;;38.28;31.38;;;12.50;83.00;;;;;;5026723;28;20497;-54
2021/04/19 10:44:39;;;;;;;34.10;29.60;;;12.70;81.70;;;;;;5013757;28;20123;-55
2021/04/19 10:47:07;;;;;;;35.25;29.67;;;12.70;80.80;;;;;;5025382;28;20394;-60
2021/04/19 10:49:34;;;;;;;31.13;27.40;;;12.80;80.40;;;;;;5032487;28;20052;-60
2021/04/19 10:52:03;;;;;;;33.60;28.50;;;12.70;79.10;;;;;;5030852;28;20025;-57
2021/04/19 10:54:31;;;;;;;32.72;27.83;;;12.50;79.50;;;;;;5018952;28;20045;-60
2021/04/19 10:56:59;;;;;;;33.92;28.05;;;12.60;80.00;;;;;;5041410;28;20029;-59
2021/04/19 10:59:25;;;;;;;33.22;28.25;;;12.80;80.40;;;;;;5025428;28;20037;-59
2021/04/19 11:01:59;;;;;;;30.17;26.98;;;13.20;78.30;;;;;;5032409;28;20354;-60
2021/04/19 11:04:25;;;;;;;34.35;29.08;;;13.40;77.90;;;;;;5033888;28;20550;-57
2021/04/19 11:06:50;;;;;;;30.55;27.20;;;13.60;77.90;;;;;;5015879;28;20033;-60
2021/04/19 11:09:18;;;;;;;33.22;27.98;;;13.80;76.50;;;;;;5025121;28;20033;-60
2021/04/19 11:11:51;;;;;;;31.35;27.35;;;13.90;75.50;;;;;;5035818;28;20046;-56
2021/04/19 11:14:23;;;;;;;28.33;25.33;;;13.90;75.50;;;;;;5033192;28;20033;-60
2021/04/19 11:16:53;;;;;;;29.00;25.85;;;14.10;74.70;;;;;;5032967;28;20075;-57
2021/04/19 11:19:41;;;;;;;29.20;25.88;;;14.20;73.50;;;;;;5037141;28;20409;-61
2021/04/19 11:22:29;;;;;;;27.95;24.92;;;14.20;72.70;;;;;;5038517;28;20036;-57
2021/04/19 11:25:10;;;;;;;29.88;26.48;;;14.00;72.80;;;;;;5028396;28;20140;-59
2021/04/19 11:27:35;;;;;;;34.70;24.75;;;14.00;73.20;;;;;;5035655;28;20100;-58
2021/04/19 11:30:02;;;;;;;29.27;26.10;;;13.90;74.40;;;;;;5022268;28;20061;-59
2021/04/19 11:32:29;;;;;;;26.60;22.92;;;14.10;73.50;;;;;;5021131;28;20127;-56
2021/04/19 11:34:55;;;;;;;29.15;22.75;;;14.20;72.30;;;;;;5027193;28;20450;-59
2021/04/19 11:37:37;;;;;;;26.75;23.95;;;14.40;71.50;;;;;;5044964;28;20036;-55
2021/04/19 11:40:05;;;;;;;26.05;23.35;;;14.60;70.40;;;;;;5024464;28;20116;-59
2021/04/19 11:42:35;;;;;;;27.15;24.25;;;14.60;70.30;;;;;;5031468;28;20419;-59
2021/04/19 11:45:05;;;;;;;26.80;24.00;;;14.60;71.40;;;;;;5043003;28;20417;-59
2021/04/19 11:47:32;;;;;;;25.98;22.70;;;14.60;71.10;;;;;;5023381;28;20125;-57
2021/04/19 11:49:58;;;;;;;24.65;21.17;;;14.50;69.60;;;;;;5031394;28;20055;-57
2021/04/19 11:52:24;;;;;;;27.83;23.05;;;14.40;70.20;;;;;;5037980;28;20576;-57
2021/04/19 11:54:50;;;;;;;25.35;22.55;;;14.80;69.80;;;;;;5029777;28;20025;-58
2021/04/19 11:57:16;;;;;;;26.77;23.92;;;15.00;69.00;;;;;;5025543;28;20426;-58
2021/04/19 11:59:42;;;;;;;27.85;24.55;;;15.30;68.20;;;;;;5024354;28;20071;-54
2021/04/19 12:02:08;;;;;;;29.17;25.80;;;15.20;68.00;;;;;;5035861;28;20045;-59
2021/04/19 12:04:34;;;;;;;30.40;26.98;;;15.40;68.80;;;;;;5026152;28;20049;-54
2021/04/19 12:07:00;;;;;;;29.48;26.27;;;15.10;69.70;;;;;;5022595;28;20064;-58
2021/04/19 12:09:26;;;;;;;28.77;25.67;;;15.00;70.20;;;;;;5038637;28;20120;-57
2021/04/19 12:11:52;;;;;;;30.20;27.00;;;14.60;70.20;;;;;;5028608;28;20605;-59
2021/04/19 12:14:18;;;;;;;27.70;24.75;;;14.30;71.70;;;;;;5021886;28;20065;-57
2021/04/19 12:16:44;;;;;;;32.47;25.83;;;14.40;72.00;;;;;;5032401;28;20029;-61
2021/04/19 12:19:10;;;;;;;29.10;25.92;;;14.40;71.70;;;;;;5029899;28;20025;-59
2021/04/19 12:21:36;;;;;;;29.02;25.67;;;14.50;71.90;;;;;;5038946;28;20494;-59
2021/04/19 12:24:03;;;;;;;29.88;25.27;;;14.50;71.70;;;;;;5034970;28;20063;-59
2021/04/19 12:26:29;;;;;;;63.05;46.00;;;14.70;71.30;;;;;;5031126;28;20045;-59
2021/04/19 12:28:55;;;;;;;30.05;26.80;;;14.80;71.30;;;;;;5030273;28;20037;-59
2021/04/19 12:31:20;;;;;;;30.70;27.40;;;14.80;73.90;;;;;;5026716;28;20121;-58
2021/04/19 12:33:48;;;;;;;31.05;27.88;;;14.60;74.40;;;;;;5031200;28;20710;-58
2021/04/19 12:36:15;;;;;;;31.17;27.90;;;14.40;75.10;;;;;;5028746;28;20057;-56
2021/04/19 12:38:40;;;;;;;31.17;27.80;;;14.20;76.00;;;;;;5033798;28;20053;-58
2021/04/19 12:41:06;;;;;;;31.30;28.05;;;14.10;77.00;;;;;;5030546;28;20074;-51
2021/04/19 12:43:32;;;;;;;32.13;28.20;;;13.90;77.60;;;;;;5015326;28;20041;-56
2021/04/19 12:45:58;;;;;;;30.75;27.10;;;13.70;78.80;;;;;;5035176;28;20150;-56